Jack Robertson — WDE5993 — position and weather

sailwx.info

Track history (hours):
 
Tides and Currents Weather Stations Pressure Air Temp Water Temp Dewpoint Dewpoint Depression Visibility Wind Speed Wind Dir Waves Ship Positions

Oceanographic research ship Jack Robertson (United States)

Owner: University of Washington Applied Physics Laboratory, Seattle, WA. More information available from US FCC via Universal Licensing System and Coast Guard Vessel Documentation Center.

Last reported at 2020-Jul-08 20:30 UTC. Time now 2020-Jul-13 01:32 UTC.
Position N 47°39' W 122°19'.

; draft 1.7 m.

Type: Other ship. MMSI: 367374350.

Date/timePositionNaut miles runAvg speedWind from/ knotsBaromVisibWave heightAir tempDewpointWater temp
2020-Jul-08 20:30N 47°39' W 122°19'4 1.3
2020-Jul-08 17:30N 47°41' W 122°24'0 0.0
2020-Jul-08 17:00N 47°41' W 122°24'0 0.0
2020-Jul-08 15:30N 47°41' W 122°24'0 0.0
2020-Jul-08 14:00N 47°41' W 122°24'0 0.0
2020-Jul-08 13:30N 47°41' W 122°24'0 0.0
2020-Jul-08 13:00N 47°41' W 122°24'0 0.0
2020-Jul-08 12:30N 47°41' W 122°24'0 0.0
2020-Jul-08 11:00N 47°41' W 122°24'0 0.0
2020-Jul-08 05:30N 47°41' W 122°24'0 0.0
2020-Jul-08 03:00N 47°41' W 122°24'1 0.3
2020-Jul-07 23:00N 47°42' W 122°25'1 1.0
2020-Jul-07 22:00N 47°43' W 122°24'1 0.4
2020-Jul-07 20:30N 47°42' W 122°24'0 0.1
2020-Jul-07 18:30N 47°43' W 122°23'0 0.1
2020-Jul-07 16:00N 47°43' W 122°23'0 0.1
2020-Jul-07 15:00N 47°42' W 122°23'2 1.8
2020-Jul-07 14:00N 47°41' W 122°24'0 0.0
2020-Jul-07 13:00N 47°41' W 122°24'0 0.0
2020-Jul-07 11:30N 47°41' W 122°24'0 0.0
2020-Jul-07 11:00N 47°41' W 122°24'0 0.0
2020-Jul-07 07:30N 47°41' W 122°24'0 0.0
2020-Jul-07 05:30N 47°41' W 122°24'0 0.0
2020-Jul-07 05:00N 47°41' W 122°24'0 0.0
2020-Jul-07 03:30N 47°41' W 122°24'0 0.0
2020-Jul-07 03:00N 47°41' W 122°24'1 0.3
2020-Jul-07 00:00N 47°40' W 122°24'3 1.9
2020-Jul-06 22:30N 47°39' W 122°20'0 0.0
2020-Jul-05 02:01N 47°39' W 122°19'23 6.5
2020-Jul-04 22:31N 47°59' W 122°37'22 8.9
2020-Jul-04 20:00N 48°15' W 122°59'2 3.9
2020-Jul-04 19:31N 48°16' W 123°01'8 8.3
2020-Jul-04 18:30N 48°16' W 123°14'30 5.0
2020-Jul-04 12:30N 48°16' W 123°59'2 2.1
2020-Jul-04 11:27N 48°17' W 124°02'30 0.8
2020-Jul-02 20:30N 48°13' W 124°47'8 7.5
2020-Jul-02 19:26N 48°21' W 124°47'5 5.3
2020-Jul-02 18:30N 48°24' W 124°41'3 1.1
2020-Jul-02 15:56N 48°23' W 124°37'0 0.0
2020-Jul-02 14:29N 48°23' W 124°37'0 0.0
2020-Jul-02 11:29N 48°23' W 124°37'0 0.0
2020-Jul-02 10:59N 48°22' W 124°37'0 0.0
2020-Jul-02 10:29N 48°23' W 124°37'0 0.0
2020-Jul-02 09:29N 48°22' W 124°37'0 0.0
2020-Jul-02 08:59N 48°22' W 124°37'0 0.0
2020-Jul-02 06:30N 48°22' W 124°37'20 7.9
2020-Jul-02 04:00N 48°16' W 124°09'5 8.7
2020-Jul-02 03:25N 48°14' W 124°02'8 8.4
2020-Jul-02 02:30N 48°13' W 123°51'8 8.4
2020-Jul-02 01:30N 48°12' W 123°38'18 8.8
2020-Jul-01 23:30N 48°11' W 123°12'35 7.0
2020-Jul-01 18:31N 47°51' W 122°29'12 4.8
2020-Jul-01 16:01N 47°40' W 122°24'  
Track history (hours):
 
Tides and Currents Weather Stations Pressure Air Temp Water Temp Dewpoint Dewpoint Depression Visibility Wind Speed Wind Dir Waves Ship Positions

Oceanographic research ship Jack Robertson (United States)

Owner: University of Washington Applied Physics Laboratory, Seattle, WA. More information available from US FCC via Universal Licensing System and Coast Guard Vessel Documentation Center.

Last reported at 2020-Jul-08 20:30 UTC. Time now 2020-Jul-13 01:32 UTC.
Position N 47°39' W 122°19'.

; draft 1.7 m.

Type: Other ship. MMSI: 367374350.

Date/timePositionNaut miles runAvg speedWind from/ knotsBaromVisibWave heightAir tempDewpointWater temp
2020-Jul-08 20:30N 47°39' W 122°19'4 1.3
2020-Jul-08 17:30N 47°41' W 122°24'0 0.0
2020-Jul-08 17:00N 47°41' W 122°24'0 0.0
2020-Jul-08 15:30N 47°41' W 122°24'0 0.0
2020-Jul-08 14:00N 47°41' W 122°24'0 0.0
2020-Jul-08 13:30N 47°41' W 122°24'0 0.0
2020-Jul-08 13:00N 47°41' W 122°24'0 0.0
2020-Jul-08 12:30N 47°41' W 122°24'0 0.0
2020-Jul-08 11:00N 47°41' W 122°24'0 0.0
2020-Jul-08 05:30N 47°41' W 122°24'0 0.0
2020-Jul-08 03:00N 47°41' W 122°24'1 0.3
2020-Jul-07 23:00N 47°42' W 122°25'1 1.0
2020-Jul-07 22:00N 47°43' W 122°24'1 0.4
2020-Jul-07 20:30N 47°42' W 122°24'0 0.1
2020-Jul-07 18:30N 47°43' W 122°23'0 0.1
2020-Jul-07 16:00N 47°43' W 122°23'0 0.1
2020-Jul-07 15:00N 47°42' W 122°23'2 1.8
2020-Jul-07 14:00N 47°41' W 122°24'0 0.0
2020-Jul-07 13:00N 47°41' W 122°24'0 0.0
2020-Jul-07 11:30N 47°41' W 122°24'0 0.0
2020-Jul-07 11:00N 47°41' W 122°24'0 0.0
2020-Jul-07 07:30N 47°41' W 122°24'0 0.0
2020-Jul-07 05:30N 47°41' W 122°24'0 0.0
2020-Jul-07 05:00N 47°41' W 122°24'0 0.0
2020-Jul-07 03:30N 47°41' W 122°24'0 0.0
2020-Jul-07 03:00N 47°41' W 122°24'1 0.3
2020-Jul-07 00:00N 47°40' W 122°24'3 1.9
2020-Jul-06 22:30N 47°39' W 122°20'0 0.0
2020-Jul-05 02:01N 47°39' W 122°19'23 6.5
2020-Jul-04 22:31N 47°59' W 122°37'22 8.9
2020-Jul-04 20:00N 48°15' W 122°59'2 3.9
2020-Jul-04 19:31N 48°16' W 123°01'8 8.3
2020-Jul-04 18:30N 48°16' W 123°14'30 5.0
2020-Jul-04 12:30N 48°16' W 123°59'2 2.1
2020-Jul-04 11:27N 48°17' W 124°02'30 0.8
2020-Jul-02 20:30N 48°13' W 124°47'8 7.5
2020-Jul-02 19:26N 48°21' W 124°47'5 5.3
2020-Jul-02 18:30N 48°24' W 124°41'3 1.1
2020-Jul-02 15:56N 48°23' W 124°37'0 0.0
2020-Jul-02 14:29N 48°23' W 124°37'0 0.0
2020-Jul-02 11:29N 48°23' W 124°37'0 0.0
2020-Jul-02 10:59N 48°22' W 124°37'0 0.0
2020-Jul-02 10:29N 48°23' W 124°37'0 0.0
2020-Jul-02 09:29N 48°22' W 124°37'0 0.0
2020-Jul-02 08:59N 48°22' W 124°37'0 0.0
2020-Jul-02 06:30N 48°22' W 124°37'20 7.9
2020-Jul-02 04:00N 48°16' W 124°09'5 8.7
2020-Jul-02 03:25N 48°14' W 124°02'8 8.4
2020-Jul-02 02:30N 48°13' W 123°51'8 8.4
2020-Jul-02 01:30N 48°12' W 123°38'18 8.8
2020-Jul-01 23:30N 48°11' W 123°12'35 7.0
2020-Jul-01 18:31N 47°51' W 122°29'12 4.8
2020-Jul-01 16:01N 47°40' W 122°24'  

Dump ship's entire track history